Terminal Aerodrome Forecast
Issued by NWS

Home | Current Version | Previous Version | Text Only | Print | Product List | Glossary On
Versions: 1 2 3 4 5 6 7 8 9 10 11 12 13 14 15 16
658
FTUS42 KMLB 261735
TAFSUA
TAF
KSUA 261735Z 2618/2718 10011G18KT P6SM SCT050
     FM270400 09003KT P6SM FEW250
     FM271500 08009KT P6SM BKN060=

USA.gov is the U.S. government's official web portal to all federal, state and local government web resources and services.